Time;durP1;ratioP1;P1;durP2;ratioP2;P2;SDS_P1;SDS_P2;PMS_P1;PMS_P2;Temp;Humidity;BMP_temperature;BMP_pressure;BME280_temperature;BME280_humidity;BME280_pressure;Samples;Min_cycle;Max_cycle;Signal;HPM_P1;HPM_P2
2022/09/16 00:01:12;;;;;;;5.95;4.68;;;15.40;99.90;;;18.38;54.05;97079.31;5006392;28;20252;-60
2022/09/16 00:03:40;;;;;;;5.03;3.75;;;15.40;99.90;;;18.38;54.04;97089.22;5005850;28;20054;-60
2022/09/16 00:06:24;;;;;;;7.25;3.90;;;15.50;99.90;;;18.38;54.14;97082.00;5007328;28;20052;-60
2022/09/16 00:08:55;;;;;;;7.80;4.30;;;15.40;99.90;;;18.33;54.20;97076.44;4989517;28;20064;-60
2022/09/16 00:11:24;;;;;;;6.20;3.97;;;15.40;99.90;;;18.32;54.13;97082.91;5005830;28;20652;-60
2022/09/16 00:13:52;;;;;;;7.22;4.53;;;15.30;99.90;;;18.32;54.00;97080.22;5006179;28;20364;-60
2022/09/16 00:16:24;;;;;;;6.65;5.00;;;15.30;99.90;;;18.23;54.39;97079.66;5005042;28;20062;-60
2022/09/16 00:19:00;;;;;;;5.10;3.95;;;15.30;99.90;;;18.24;54.48;97073.25;5008279;28;20057;-60
2022/09/16 00:21:29;;;;;;;6.22;4.55;;;15.30;99.90;;;18.25;54.38;97072.19;5007397;28;20057;-60
2022/09/16 00:23:58;;;;;;;5.88;5.03;;;15.20;99.90;;;18.25;54.50;97074.06;5007111;28;20583;-60
2022/09/16 00:26:26;;;;;;;6.32;4.97;;;15.30;99.90;;;18.29;54.56;97064.47;5003719;28;20045;-60
2022/09/16 00:28:53;;;;;;;7.93;5.03;;;15.30;99.90;;;18.33;54.65;97065.66;5006722;28;20050;-60
2022/09/16 00:31:21;;;;;;;5.55;4.53;;;15.30;99.90;;;18.33;54.55;97067.53;5006226;28;20516;-58
2022/09/16 00:33:49;;;;;;;7.13;5.40;;;15.40;99.90;;;18.33;54.49;97072.94;5005034;28;20072;-59
2022/09/16 00:36:19;;;;;;;7.32;4.50;;;15.30;99.90;;;18.29;54.58;97077.94;5007016;28;20286;-59
2022/09/16 00:38:56;;;;;;;6.78;4.80;;;15.30;99.90;;;18.25;54.61;97084.84;5006084;28;20054;-61
2022/09/16 00:41:31;;;;;;;6.15;5.55;;;15.30;99.90;;;18.23;54.81;97070.75;5007181;28;20292;-61
2022/09/16 00:44:04;;;;;;;10.15;5.00;;;15.20;99.90;;;18.20;55.00;97076.59;5021906;28;20667;-61
2022/09/16 00:46:46;;;;;;;7.35;4.43;;;15.20;99.90;;;18.20;54.82;97072.00;5006580;28;20066;-61
2022/09/16 00:49:21;;;;;;;5.00;4.30;;;15.20;99.90;;;18.19;55.00;97069.56;5006259;28;20045;-61
2022/09/16 00:51:53;;;;;;;11.80;6.05;;;15.20;99.90;;;18.15;55.15;97071.06;5005811;28;20050;-61
2022/09/16 00:54:22;;;;;;;8.23;4.38;;;15.20;99.90;;;18.14;55.21;97069.41;5004825;28;20060;-61
2022/09/16 00:56:54;;;;;;;5.03;3.95;;;15.20;99.90;;;18.07;55.39;97077.56;5005599;28;20162;-59
2022/09/16 00:59:36;;;;;;;6.93;4.38;;;15.10;99.90;;;18.05;55.30;97076.97;5005354;28;20056;-59
2022/09/16 01:02:11;;;;;;;5.53;4.00;;;15.10;99.90;;;18.01;55.59;97084.66;5005555;28;20056;-59
2022/09/16 01:05:00;;;;;;;5.60;4.18;;;15.10;99.90;;;18.02;55.63;97085.47;5007687;28;20057;-59
2022/09/16 01:07:48;;;;;;;7.70;4.65;;;15.10;99.90;;;18.03;55.50;97089.81;5004909;28;20046;-61
2022/09/16 01:10:21;;;;;;;7.30;4.47;;;15.00;99.90;;;17.99;55.54;97086.75;5005057;28;20362;-61
2022/09/16 01:13:09;;;;;;;5.82;4.45;;;15.00;99.90;;;17.87;55.37;97089.34;5005416;28;20060;-59
2022/09/16 01:16:14;;;;;;;6.95;4.75;;;15.00;99.90;;;17.83;55.51;97087.28;5008694;28;20084;-59
2022/09/16 01:19:12;;;;;;;;;;;14.90;99.90;;;17.92;55.01;97091.38;5010816;28;20052;-59
2022/09/16 01:22:10;;;;;;;8.73;3.83;;;14.80;99.90;;;17.86;55.06;97081.50;5008935;28;19924;-59
2022/09/16 01:25:20;;;;;;;6.63;3.60;;;14.80;99.90;;;17.84;54.91;97083.59;5011111;28;20263;-61
2022/09/16 01:28:15;;;;;;;8.02;3.80;;;14.80;99.90;;;17.81;54.65;97089.38;5008509;28;20061;-59
2022/09/16 01:31:01;;;;;;;6.28;4.50;;;14.80;99.90;;;17.80;54.52;97085.84;5010133;28;20057;-59
2022/09/16 01:33:57;;;;;;;5.95;3.53;;;14.80;99.90;;;17.74;54.49;97084.06;5009015;28;20045;-59
2022/09/16 01:36:47;;;;;;;5.13;3.70;;;14.70;99.90;;;17.73;54.61;97086.97;5009762;28;20417;-59
2022/09/16 01:39:34;;;;;;;5.47;4.00;;;14.70;99.90;;;17.74;54.71;97088.59;5008545;28;20053;-59
2022/09/16 01:42:35;;;;;;;5.70;3.80;;;14.70;99.90;;;17.71;54.62;97085.28;5008893;28;20055;-61
2022/09/16 01:45:16;;;;;;;7.78;4.00;;;14.70;99.90;;;17.72;54.53;97088.84;5009327;28;20050;-61
2022/09/16 01:47:56;;;;;;;4.75;3.55;;;14.70;99.90;;;17.72;54.72;97086.16;5007954;28;20049;-59
2022/09/16 01:50:34;;;;;;;6.50;3.83;;;14.70;99.90;;;17.72;54.54;97091.53;5009491;28;20241;-59
2022/09/16 01:53:23;;;;;;;6.40;3.78;;;14.70;99.90;;;17.71;54.41;97087.19;5009307;28;20046;-59
2022/09/16 01:56:10;;;;;;;5.35;3.83;;;14.70;99.90;;;17.68;54.57;97090.28;5009698;28;20362;-61
2022/09/16 01:59:22;;;;;;;4.57;3.70;;;14.60;99.90;;;17.64;54.31;97087.25;5008060;28;20053;-59
2022/09/16 02:02:12;;;;;;;8.73;4.07;;;14.60;99.90;;;17.66;54.44;97081.63;5007352;28;20058;-59
2022/09/16 02:04:49;;;;;;;4.45;3.63;;;14.60;99.90;;;17.64;54.39;97076.47;4992834;28;20073;-61
2022/09/16 02:07:23;;;;;;;5.10;3.20;;;14.60;99.90;;;17.63;54.33;97057.84;5002072;28;20061;-61
2022/09/16 02:09:57;;;;;;;6.95;3.50;;;14.70;99.90;;;17.63;54.19;97057.84;5008333;28;20054;-59
2022/09/16 02:12:32;;;;;;;6.72;4.00;;;14.70;99.90;;;17.63;54.25;97068.63;4990989;28;20339;-59
2022/09/16 02:15:07;;;;;;;5.00;3.50;;;14.70;99.90;;;17.58;54.10;97071.94;5007321;28;20054;-59
2022/09/16 02:17:43;;;;;;;5.78;4.00;;;14.60;99.90;;;17.51;54.22;97066.63;5008595;28;20165;-61
2022/09/16 02:20:23;;;;;;;4.80;3.83;;;14.50;99.90;;;17.51;54.51;97068.50;4991515;28;20046;-59
2022/09/16 02:23:04;;;;;;;5.32;3.80;;;14.50;99.90;;;17.52;54.40;97073.69;5007739;28;20045;-61
2022/09/16 02:25:37;;;;;;;5.97;4.43;;;14.50;99.90;;;17.46;54.33;97074.53;5007341;28;20048;-59
2022/09/16 02:28:11;;;;;;;5.63;4.07;;;14.40;99.90;;;17.46;54.36;97066.47;5008295;28;20044;-59
2022/09/16 02:30:44;;;;;;;5.50;3.95;;;14.40;99.90;;;17.44;54.02;97068.53;5009200;28;20064;-61
2022/09/16 02:33:15;;;;;;;5.93;4.18;;;14.40;99.90;;;17.46;54.32;97068.34;5006396;28;20059;-59
2022/09/16 02:35:48;;;;;;;5.95;4.45;;;14.40;99.90;;;17.43;54.26;97064.22;5007682;28;20046;-59
2022/09/16 02:38:45;;;;;;;6.03;3.38;;;14.40;99.90;;;17.43;54.11;97072.28;5007304;28;20068;-59
2022/09/16 02:41:14;;;;;;;7.72;4.18;;;14.40;99.90;;;17.39;53.98;97073.78;5006170;28;20075;-60
2022/09/16 02:43:44;;;;;;;5.22;4.07;;;14.30;99.90;;;17.36;54.15;97068.00;4989831;28;20045;-59
2022/09/16 02:46:21;;;;;;;7.93;4.72;;;14.20;99.90;;;17.36;54.30;97070.69;5007252;28;20050;-59
2022/09/16 02:49:17;;;;;;;5.55;2.97;;;14.30;99.90;;;17.37;54.18;97067.78;5008220;28;20046;-59
2022/09/16 02:52:07;;;;;;;4.90;3.38;;;14.30;99.90;;;17.37;54.07;97059.72;5007784;28;20042;-59
2022/09/16 02:54:58;;;;;;;4.68;3.30;;;14.30;99.90;;;17.34;54.10;97060.16;5008616;28;20056;-59
2022/09/16 02:57:27;;;;;;;6.40;3.70;;;14.30;99.90;;;17.34;53.73;97062.03;5006879;28;20064;-59
2022/09/16 02:59:55;;;;;;;5.75;4.30;;;14.20;99.90;;;17.26;53.98;97055.84;5007867;28;20056;-60
2022/09/16 03:02:24;;;;;;;7.63;3.88;;;14.20;99.90;;;17.26;53.86;97055.03;5004214;28;20328;-59
2022/09/16 03:04:52;;;;;;;7.57;3.42;;;14.20;99.90;;;17.29;54.10;97060.81;5006417;28;20064;-59
2022/09/16 03:07:19;;;;;;;6.97;3.70;;;14.20;99.90;;;17.28;54.10;97052.97;5008839;28;20037;-59
2022/09/16 03:09:49;;;;;;;6.45;3.95;;;14.30;99.90;;;17.26;53.88;97052.34;5006941;28;20415;-59
2022/09/16 03:13:06;;;;;;;6.97;3.67;;;14.20;99.90;;;17.26;54.19;97055.03;5006360;28;20050;-59
2022/09/16 03:16:03;;;;;;;4.68;3.38;;;14.20;99.90;;;17.31;54.15;97057.88;5007279;28;20056;-59
2022/09/16 03:18:40;;;;;;;6.15;4.07;;;14.30;99.90;;;17.34;54.03;97062.03;4997668;28;20088;-61
2022/09/16 03:21:26;;;;;;;5.47;4.22;;;14.30;99.90;;;17.32;54.05;97060.34;5008609;28;20050;-61
2022/09/16 03:24:36;;;;;;;7.03;3.75;;;14.30;99.90;;;17.37;54.25;97057.03;5005821;28;20374;-61
2022/09/16 03:27:19;;;;;;;9.07;3.80;;;14.30;99.90;;;17.40;54.11;97053.88;5004495;28;20085;-59
2022/09/16 03:30:05;;;;;;;7.22;3.70;;;14.40;99.90;;;17.39;54.07;97049.56;5007153;28;20227;-59
2022/09/16 03:33:08;;;;;;;5.78;4.03;;;14.40;99.90;;;17.38;53.83;97047.91;5006402;28;20053;-59
2022/09/16 03:35:49;;;;;;;7.03;3.80;;;14.40;99.90;;;17.41;53.85;97049.31;5005360;28;20052;-59
2022/09/16 03:38:18;;;;;;;5.43;4.00;;;14.40;99.90;;;17.41;54.01;97054.69;5005935;28;20096;-59
2022/09/16 03:40:47;;;;;;;4.22;3.30;;;14.30;99.90;;;17.35;53.89;97056.44;5007327;28;20060;-59
2022/09/16 03:43:16;;;;;;;5.63;3.60;;;14.30;99.90;;;17.30;53.91;97054.38;5006303;28;20058;-58
2022/09/16 03:45:44;;;;;;;5.45;3.92;;;14.30;99.90;;;17.34;53.91;97052.06;5005516;28;20054;-59
2022/09/16 03:48:13;;;;;;;5.45;3.20;;;14.30;99.90;;;17.34;53.95;97048.56;5006338;28;20255;-59
2022/09/16 03:50:40;;;;;;;5.10;3.75;;;14.30;99.90;;;17.34;54.12;97043.19;5007618;28;20053;-59
2022/09/16 03:53:08;;;;;;;5.72;3.60;;;14.30;99.90;;;17.35;53.94;97044.81;5005646;28;20521;-59
2022/09/16 03:55:36;;;;;;;5.75;3.30;;;14.30;99.90;;;17.31;53.81;97042.59;5006954;28;20050;-59
2022/09/16 03:58:04;;;;;;;5.25;3.75;;;14.30;99.90;;;17.36;54.18;97043.78;5006047;28;20048;-59
2022/09/16 04:00:32;;;;;;;5.47;3.45;;;14.30;99.90;;;17.37;53.84;97038.19;5005238;28;20046;-59
2022/09/16 04:03:00;;;;;;;7.82;3.50;;;14.40;99.90;;;17.39;53.95;97038.81;5007061;28;20076;-59
2022/09/16 04:05:28;;;;;;;4.93;3.58;;;14.40;99.90;;;17.41;53.92;97039.41;5005210;28;20058;-59
2022/09/16 04:07:56;;;;;;;6.25;3.42;;;14.40;99.90;;;17.40;53.90;97032.38;5007123;28;20045;-59
2022/09/16 04:10:24;;;;;;;5.10;3.92;;;14.40;99.90;;;17.41;53.71;97033.19;5006514;28;20050;-59
2022/09/16 04:12:57;;;;;;;3.95;3.05;;;14.40;99.90;;;17.41;54.06;97033.19;5006749;28;20065;-59
2022/09/16 04:15:24;;;;;;;6.23;3.23;;;14.40;99.90;;;17.42;53.83;97032.16;5007124;28;20052;-59
2022/09/16 04:17:53;;;;;;;10.05;3.05;;;14.30;99.90;;;17.41;53.85;97034.03;5007781;28;20471;-59
2022/09/16 04:20:22;;;;;;;6.53;3.63;;;14.40;99.90;;;17.42;54.00;97027.59;5006375;28;20440;-59
2022/09/16 04:22:50;;;;;;;6.85;3.90;;;14.40;99.90;;;17.44;53.73;97030.88;5006462;28;20057;-59
2022/09/16 04:25:18;;;;;;;7.32;4.18;;;14.40;99.90;;;17.45;53.71;97032.53;5004846;28;20064;-59
2022/09/16 04:27:45;;;;;;;4.13;3.20;;;14.40;99.90;;;17.45;54.18;97037.91;5007726;28;20058;-59
2022/09/16 04:30:13;;;;;;;5.15;4.03;;;14.50;99.90;;;17.42;54.29;97019.50;5007120;28;20424;-59
2022/09/16 04:32:41;;;;;;;5.00;3.50;;;14.40;99.90;;;17.44;54.41;97028.19;5006821;28;20413;-59
2022/09/16 04:35:09;;;;;;;13.32;4.60;;;14.40;99.90;;;17.39;54.47;97025.34;5004886;28;20050;-59
2022/09/16 04:37:37;;;;;;;6.53;4.10;;;14.30;99.90;;;17.40;54.51;97021.59;5021704;28;20075;-59
2022/09/16 04:40:05;;;;;;;5.70;4.18;;;14.40;99.90;;;17.39;54.47;97019.13;5007048;28;20049;-59
2022/09/16 04:42:34;;;;;;;5.93;4.35;;;14.40;99.90;;;17.41;54.30;97027.78;5007385;28;20068;-59
2022/09/16 04:45:02;;;;;;;6.35;3.63;;;14.40;99.90;;;17.42;54.41;97024.06;5006444;28;20058;-59
2022/09/16 04:47:30;;;;;;;6.28;3.97;;;14.40;99.90;;;17.43;54.36;97039.19;5007763;28;20057;-59
2022/09/16 04:49:58;;;;;;;7.50;4.20;;;14.40;99.90;;;17.39;54.53;97030.72;5009665;28;20402;-59
2022/09/16 04:52:28;;;;;;;7.82;4.43;;;14.30;99.90;;;17.42;54.48;97032.97;5009767;28;20042;-59
2022/09/16 04:54:56;;;;;;;6.88;4.03;;;14.40;99.90;;;17.43;54.81;97040.00;5009416;28;20050;-59
2022/09/16 04:57:25;;;;;;;6.85;4.32;;;14.40;99.90;;;17.43;54.94;97041.88;5008729;28;20049;-59
2022/09/16 04:59:52;;;;;;;7.75;3.55;;;14.40;99.90;;;17.40;54.94;97047.69;5011923;28;20060;-59
2022/09/16 05:02:20;;;;;;;7.18;3.67;;;14.30;99.90;;;17.35;55.15;97036.75;5008966;28;20064;-59
2022/09/16 05:04:48;;;;;;;6.22;3.60;;;14.30;99.90;;;17.34;55.16;97035.94;5009857;28;20058;-59
2022/09/16 05:07:16;;;;;;;7.97;3.35;;;14.20;99.90;;;17.34;55.32;97035.13;5010553;28;20324;-59
2022/09/16 05:09:44;;;;;;;5.72;3.80;;;14.30;99.90;;;17.34;55.56;97041.31;5009186;28;20054;-59
2022/09/16 05:12:11;;;;;;;5.80;3.92;;;14.30;99.90;;;17.27;55.23;97040.53;5009718;28;20058;-59
2022/09/16 05:14:40;;;;;;;9.35;4.20;;;14.20;99.90;;;17.21;55.35;97034.16;5010083;28;20064;-59
2022/09/16 05:17:07;;;;;;;6.13;4.32;;;14.10;99.90;;;17.22;55.27;97032.31;5009219;28;20049;-59
2022/09/16 05:19:35;;;;;;;6.57;4.22;;;14.10;99.90;;;17.11;55.61;97034.63;5008270;28;20344;-59
2022/09/16 05:22:06;;;;;;;5.28;4.28;;;14.00;99.90;;;17.03;55.77;97029.53;5008945;28;20050;-59
2022/09/16 05:24:37;;;;;;;5.78;3.83;;;14.00;99.90;;;16.97;56.21;97032.28;5008429;28;20251;-58
2022/09/16 05:27:05;;;;;;;7.15;4.05;;;13.90;99.90;;;17.04;56.26;97035.72;4992496;28;20129;-59
2022/09/16 05:29:33;;;;;;;6.13;4.07;;;14.00;99.90;;;16.97;56.36;97041.16;5010452;28;20458;-60
2022/09/16 05:32:01;;;;;;;4.75;4.13;;;13.90;99.90;;;16.87;56.59;97036.25;5009519;28;20060;-60
2022/09/16 05:34:29;;;;;;;7.85;4.13;;;13.90;99.90;;;16.85;57.03;97032.97;5010778;28;20050;-58
2022/09/16 05:36:57;;;;;;;4.82;3.92;;;13.80;99.90;;;16.72;57.04;97035.69;5007738;28;20056;-58
2022/09/16 05:39:25;;;;;;;7.90;5.05;;;13.80;99.90;;;16.79;57.11;97043.69;5008933;28;20254;-58
2022/09/16 05:41:59;;;;;;;6.35;4.10;;;13.80;99.90;;;16.77;57.06;97037.72;5009609;28;20053;-58
2022/09/16 05:44:28;;;;;;;8.05;5.13;;;13.80;99.90;;;16.69;57.45;97036.09;5008032;28;20161;-58
2022/09/16 05:46:56;;;;;;;7.20;4.93;;;13.80;99.90;;;16.86;57.31;97045.34;5009108;28;20259;-58
2022/09/16 05:49:25;;;;;;;7.97;4.90;;;13.90;99.90;;;16.96;57.20;97046.75;5009246;28;20057;-58
2022/09/16 05:51:53;;;;;;;6.88;4.40;;;14.00;99.90;;;16.87;57.32;97044.31;5008633;28;20056;-58
2022/09/16 05:54:23;;;;;;;5.22;4.13;;;13.90;99.90;;;16.99;57.29;97041.78;5011263;28;20247;-59
2022/09/16 05:56:52;;;;;;;5.75;4.20;;;14.00;99.90;;;17.05;56.66;97048.16;5008747;28;20061;-59
2022/09/16 05:59:21;;;;;;;7.22;4.47;;;14.00;99.90;;;17.07;56.82;97048.75;5007676;28;20295;-58
2022/09/16 06:01:49;;;;;;;6.50;5.07;;;14.00;99.90;;;17.06;56.40;97039.88;5006719;28;20064;-59
2022/09/16 06:04:17;;;;;;;7.50;4.75;;;14.10;99.90;;;17.09;56.66;97034.03;5006063;28;20050;-59
2022/09/16 06:06:45;;;;;;;6.05;4.55;;;14.10;99.90;;;17.13;56.67;97050.56;5009162;28;20060;-59
2022/09/16 06:09:21;;;;;;;7.30;4.40;;;14.10;99.90;;;17.18;56.52;97042.69;5007867;28;20500;-59
2022/09/16 06:11:52;;;;;;;7.05;4.25;;;14.20;99.90;;;17.25;56.34;97050.69;5007421;28;20046;-59
2022/09/16 06:14:23;;;;;;;9.10;4.18;;;14.20;99.90;;;17.23;56.44;97047.41;5008592;28;20255;-59
2022/09/16 06:16:51;;;;;;;8.45;4.03;;;14.20;99.90;;;17.17;56.63;97059.03;5008042;28;20362;-59
2022/09/16 06:19:19;;;;;;;9.88;4.18;;;14.10;99.90;;;17.20;56.51;97058.59;5007617;28;20048;-59
2022/09/16 06:21:47;;;;;;;5.63;3.70;;;14.10;99.90;;;17.16;56.38;97058.22;5008911;28;20308;-59
2022/09/16 06:24:18;;;;;;;6.88;4.13;;;14.10;99.90;;;17.19;56.43;97060.44;5006391;28;20282;-58
2022/09/16 06:26:48;;;;;;;6.57;3.40;;;14.20;99.90;;;17.16;56.23;97068.13;5006838;28;20073;-59
2022/09/16 06:29:16;;;;;;;6.00;3.58;;;14.10;99.90;;;17.11;56.61;97066.91;5007220;28;20046;-59
2022/09/16 06:31:44;;;;;;;6.05;4.30;;;14.00;99.90;;;17.04;56.52;97074.22;5008057;28;20496;-58
2022/09/16 06:34:17;;;;;;;8.93;4.07;;;14.00;99.90;;;17.00;56.83;97066.78;5006506;28;20049;-59
2022/09/16 06:36:45;;;;;;;6.72;3.92;;;14.00;99.90;;;16.91;56.99;97067.03;5008892;28;20056;-59
2022/09/16 06:39:16;;;;;;;7.28;3.58;;;13.80;99.90;;;16.91;57.05;97064.34;5009122;28;20383;-59
2022/09/16 06:41:44;;;;;;;8.73;4.82;;;13.80;99.90;;;16.91;57.34;97058.97;5008027;28;20049;-58
2022/09/16 06:44:12;;;;;;;6.40;3.85;;;13.80;99.90;;;16.94;57.37;97060.41;5007768;28;20052;-58
2022/09/16 06:46:40;;;;;;;6.00;3.97;;;13.80;99.90;;;16.96;57.25;97073.63;5008447;28;20064;-58
2022/09/16 06:49:09;;;;;;;9.15;4.07;;;13.90;99.90;;;16.93;57.72;97069.53;5006155;28;20049;-57
2022/09/16 06:51:39;;;;;;;6.57;4.63;;;13.90;99.90;;;16.76;57.86;97063.78;5014867;28;20077;-58
2022/09/16 06:54:09;;;;;;;8.32;4.75;;;13.70;99.90;;;16.68;58.42;97059.47;5009404;28;20056;-58
2022/09/16 06:56:38;;;;;;;8.75;5.82;;;13.70;99.90;;;16.77;58.13;97068.13;5006819;28;20050;-57
2022/09/16 06:59:07;;;;;;;7.13;4.60;;;13.70;99.90;;;16.76;58.48;97068.34;5007763;28;20054;-59
2022/09/16 07:01:35;;;;;;;8.75;5.47;;;13.70;99.90;;;16.74;58.55;97077.44;5012464;28;20045;-59
2022/09/16 07:04:09;;;;;;;10.85;4.63;;;13.70;99.90;;;16.80;58.49;97077.63;5006427;28;20248;-61
2022/09/16 07:06:38;;;;;;;8.93;4.72;;;13.70;99.90;;;16.82;58.53;97079.09;5007802;28;20408;-61
2022/09/16 07:09:26;;;;;;;7.30;4.85;;;13.70;99.90;;;16.87;58.06;97078.47;5007184;28;20061;-60
2022/09/16 07:11:54;;;;;;;9.18;4.13;;;13.70;99.90;;;16.85;57.94;97072.47;5007014;28;20049;-62
2022/09/16 07:14:22;;;;;;;6.53;4.05;;;13.70;99.90;;;16.82;57.95;97072.88;5008397;28;20365;-60
2022/09/16 07:16:50;;;;;;;7.93;5.15;;;13.70;99.90;;;16.67;59.02;97075.81;5021079;28;20045;-60
2022/09/16 07:19:18;;;;;;;7.28;4.60;;;13.60;99.90;;;16.60;58.74;97073.16;5025584;28;20057;-60
2022/09/16 07:21:46;;;;;;;8.00;4.78;;;13.50;99.90;;;16.70;58.82;97073.53;5025663;28;20053;-59
2022/09/16 07:24:14;;;;;;;9.88;5.25;;;13.60;99.90;;;16.83;58.84;97071.88;5025412;28;20057;-59
2022/09/16 07:26:43;;;;;;;9.73;4.63;;;13.70;99.90;;;16.91;58.91;97067.03;5027014;28;20049;-60
2022/09/16 07:29:17;;;;;;;7.63;5.05;;;13.80;99.90;;;16.98;58.56;97058.94;5027744;28;20271;-59
2022/09/16 07:31:45;;;;;;;6.82;4.10;;;13.90;99.90;;;16.88;58.13;97064.78;5026337;28;20056;-60
2022/09/16 07:34:13;;;;;;;10.63;4.25;;;13.80;99.90;;;16.87;58.00;97075.75;5025364;28;20045;-60
2022/09/16 07:36:47;;;;;;;7.53;4.40;;;13.70;99.90;;;16.81;58.08;97071.19;5015797;28;20336;-59
2022/09/16 07:39:17;;;;;;;7.20;4.43;;;13.60;99.90;;;16.75;58.09;97075.59;5006103;28;20079;-59
2022/09/16 07:41:47;;;;;;;7.60;3.80;;;13.50;99.90;;;16.77;58.09;97083.41;5006254;28;20439;-59
2022/09/16 07:44:18;;;;;;;4.90;4.03;;;13.60;99.90;;;16.74;58.05;97079.31;5006504;28;20149;-60
2022/09/16 07:46:46;;;;;;;7.78;4.22;;;13.60;99.90;;;16.77;57.89;97083.41;5006819;28;20061;-59
2022/09/16 07:49:15;;;;;;;6.53;4.05;;;13.60;99.90;;;16.73;58.47;97078.50;5017345;28;20343;-59
2022/09/16 07:51:45;;;;;;;6.38;3.92;;;13.60;99.90;;;16.79;58.13;97084.88;5025205;28;20045;-59
2022/09/16 07:54:16;;;;;;;9.05;4.53;;;13.70;99.90;;;16.86;58.25;97077.59;5011301;28;20041;-59
2022/09/16 07:56:44;;;;;;;6.38;4.70;;;13.70;99.90;;;16.93;58.44;97091.03;5005283;28;20060;-59
2022/09/16 07:59:17;;;;;;;5.45;4.10;;;13.80;99.90;;;16.98;58.54;97088.50;5007359;28;20057;-59
2022/09/16 08:01:49;;;;;;;6.53;4.22;;;13.90;99.90;;;17.05;58.34;97085.78;5007058;28;20058;-59
2022/09/16 08:04:19;;;;;;;8.43;4.22;;;14.00;99.90;;;17.07;58.18;97089.09;5006386;28;20372;-59
2022/09/16 08:06:47;;;;;;;6.43;4.47;;;14.00;99.90;;;17.14;58.38;97092.56;5006654;28;20042;-59
2022/09/16 08:09:15;;;;;;;8.60;4.30;;;14.10;99.90;;;17.02;58.14;97094.28;5006606;28;20807;-59
2022/09/16 08:12:06;;;;;;;7.80;4.43;;;14.00;99.90;;;17.13;58.00;97102.47;5006634;28;20042;-59
2022/09/16 08:14:34;;;;;;;7.35;4.10;;;14.00;99.90;;;17.18;58.24;97101.03;5007717;28;20083;-59
2022/09/16 08:17:03;;;;;;;5.03;3.85;;;14.10;99.90;;;17.22;58.09;97110.31;5022149;28;20372;-59
2022/09/16 08:19:30;;;;;;;6.47;4.28;;;14.20;99.90;;;17.18;57.54;97112.59;5005215;28;20068;-59
2022/09/16 08:21:58;;;;;;;7.78;4.28;;;14.10;99.90;;;16.99;57.92;97103.59;5005520;28;20050;-59
2022/09/16 08:24:26;;;;;;;5.25;4.07;;;13.90;99.90;;;16.96;57.90;97111.28;4989075;28;20062;-59
2022/09/16 08:26:54;;;;;;;5.57;3.88;;;13.90;99.90;;;16.97;58.11;97111.06;5006547;28;20061;-59
2022/09/16 08:29:24;;;;;;;5.25;4.00;;;13.90;99.90;;;17.04;58.42;97102.94;5007529;28;20332;-59
2022/09/16 08:31:52;;;;;;;6.10;4.93;;;14.00;99.90;;;17.12;58.29;97111.59;5006887;28;20252;-59
2022/09/16 08:34:20;;;;;;;5.50;4.32;;;14.10;99.90;;;17.21;57.78;97100.59;5007020;28;20060;-59
2022/09/16 08:36:48;;;;;;;10.45;4.78;;;14.20;99.90;;;17.06;58.51;97101.72;5006766;28;20049;-59
2022/09/16 08:39:15;;;;;;;6.32;5.20;;;14.10;99.90;;;17.22;58.15;97105.75;5005047;28;20050;-59
2022/09/16 08:42:20;;;;;;;6.78;4.70;;;14.20;99.90;;;17.29;58.29;97109.22;5006551;28;20521;-59
2022/09/16 08:45:14;;;;;;;8.65;4.70;;;14.30;99.90;;;17.35;58.41;97112.06;5005972;28;20061;-59
2022/09/16 08:48:13;;;;;;;7.75;4.63;;;14.30;99.90;;;17.42;58.00;97102.09;5007231;28;20068;-59
2022/09/16 08:50:45;;;;;;;6.05;4.13;;;14.40;99.90;;;17.34;58.11;97115.81;5006678;28;20053;-59
2022/09/16 08:53:41;;;;;;;9.32;4.72;;;14.40;99.90;;;17.43;58.19;97117.22;5006483;28;20041;-59
2022/09/16 08:56:15;;;;;;;5.55;4.53;;;14.40;99.90;;;17.54;58.27;97119.19;5006372;28;20125;-59
2022/09/16 08:59:00;;;;;;;7.13;4.63;;;14.50;99.90;;;17.48;57.93;97112.81;5007441;28;20255;-59
2022/09/16 09:01:43;;;;;;;;;;;14.50;99.90;;;17.61;57.44;97114.59;5006585;28;20057;-59
2022/09/16 09:04:12;;;;;;;7.05;4.75;;;14.50;99.90;;;17.60;57.50;97115.66;5003407;28;19929;-59
2022/09/16 09:07:27;;;;;;;6.97;4.85;;;14.50;99.90;;;17.57;57.48;97120.63;5005670;28;20052;-59
2022/09/16 09:10:25;;;;;;;6.40;4.03;;;14.50;99.90;;;17.59;57.62;97113.97;5017039;28;20064;-59
2022/09/16 09:13:10;;;;;;;7.70;4.35;;;14.50;99.90;;;17.61;57.71;97106.50;5020711;28;20057;-59
2022/09/16 09:16:29;;;;;;;4.85;3.83;;;14.50;99.90;;;17.57;57.26;97123.31;5023821;28;20347;-60
2022/09/16 09:19:08;;;;;;;7.15;4.10;;;14.50;99.90;;;17.58;57.13;97106.94;5025107;28;20046;-59
2022/09/16 09:22:04;;;;;;;4.93;3.60;;;14.50;99.90;;;17.64;57.29;97118.69;5025088;28;20045;-60
2022/09/16 09:24:52;;;;;;;6.50;3.50;;;14.60;99.90;;;17.65;56.94;97113.09;5025024;28;20061;-59
2022/09/16 09:27:46;;;;;;;5.95;3.67;;;14.70;99.90;;;17.70;56.96;97112.47;5025503;28;20107;-59
2022/09/16 09:30:26;;;;;;;4.65;3.80;;;14.70;99.90;;;17.76;56.71;97105.34;5025648;28;20050;-59
2022/09/16 09:33:24;;;;;;;4.47;3.47;;;14.80;99.90;;;17.85;56.66;97112.13;5023230;28;20054;-59
2022/09/16 09:36:46;;;;;;;4.65;3.75;;;14.80;99.90;;;17.91;56.32;97122.03;5028700;28;20069;-59
2022/09/16 09:39:41;;;;;;;5.10;4.03;;;14.90;99.90;;;17.88;55.29;97123.31;5028713;28;20108;-59
2022/09/16 09:42:26;;;;;;;5.45;2.72;;;14.80;99.90;;;17.74;55.23;97120.91;5027875;28;20072;-59
2022/09/16 09:45:23;;;;;;;5.00;2.92;;;14.70;99.90;;;17.71;55.56;97116.78;5028787;28;20049;-59
2022/09/16 09:48:00;;;;;;;5.20;3.58;;;14.70;99.90;;;17.73;55.60;97117.38;5029340;28;20047;-59
2022/09/16 09:50:46;;;;;;;4.65;3.22;;;14.60;99.90;;;17.71;55.82;97112.22;5027371;28;20045;-59
2022/09/16 09:53:17;;;;;;;5.10;3.08;;;14.70;99.90;;;17.77;55.88;97112.41;5027037;28;20045;-60
2022/09/16 09:55:45;;;;;;;4.13;3.30;;;14.70;99.90;;;17.70;55.59;97112.47;5011797;28;20057;-59
2022/09/16 09:58:39;;;;;;;4.22;3.53;;;14.70;99.90;;;17.70;55.62;97110.59;5026916;28;20063;-59
2022/09/16 10:01:10;;;;;;;7.63;3.92;;;14.60;99.90;;;17.81;56.13;97105.53;5028074;28;20045;-60
2022/09/16 10:03:39;;;;;;;8.30;4.38;;;14.70;99.90;;;17.85;55.87;97102.19;5028485;28;20049;-60
2022/09/16 10:06:09;;;;;;;5.25;4.13;;;14.80;99.90;;;17.80;55.60;97117.34;5029042;28;20069;-60
2022/09/16 10:08:51;;;;;;;4.82;3.47;;;14.70;99.90;;;17.54;55.56;97113.00;5026775;28;20337;-60
2022/09/16 10:11:23;;;;;;;9.75;3.85;;;14.60;99.90;;;17.52;55.82;97122.13;5010627;28;20057;-60
2022/09/16 10:14:01;;;;;;;5.05;3.83;;;14.50;99.90;;;17.62;55.77;97115.41;5028159;28;20072;-59
2022/09/16 10:16:36;;;;;;;4.47;3.90;;;14.60;99.90;;;17.66;55.64;97125.53;5026857;28;20041;-60
2022/09/16 10:19:24;;;;;;;6.53;4.60;;;14.60;99.90;;;17.60;55.48;97118.34;5010943;28;20045;-60
2022/09/16 10:22:14;;;;;;;5.60;4.00;;;14.60;99.90;;;17.40;55.79;97123.84;5025440;28;20052;-60
2022/09/16 10:24:42;;;;;;;8.13;3.95;;;14.40;99.90;;;17.40;55.62;97121.16;5027727;28;20274;-59
2022/09/16 10:27:28;;;;;;;8.48;3.72;;;14.40;99.90;;;17.32;55.37;97116.84;5029908;28;20049;-60
2022/09/16 10:30:15;;;;;;;4.20;3.67;;;14.40;99.90;;;17.23;55.81;97125.41;5028455;28;20247;-60
2022/09/16 10:33:03;;;;;;;5.38;3.83;;;14.30;99.90;;;17.25;56.02;97124.16;5028393;28;20370;-60
2022/09/16 10:35:35;;;;;;;4.85;3.90;;;14.30;99.90;;;17.39;56.05;97121.34;5028299;28;20049;-60
2022/09/16 10:38:20;;;;;;;5.72;4.20;;;14.40;99.90;;;17.28;56.04;97120.19;5027553;28;20053;-60
2022/09/16 10:41:01;;;;;;;5.30;3.63;;;14.40;99.90;;;17.30;56.20;97118.94;5026570;28;20363;-61
2022/09/16 10:43:30;;;;;;;6.03;3.90;;;14.40;99.90;;;17.19;56.46;97116.94;5026659;28;20057;-61
2022/09/16 10:45:58;;;;;;;6.93;4.00;;;14.30;99.90;;;17.20;56.74;97115.91;5028834;28;20071;-62
2022/09/16 10:48:29;;;;;;;4.72;3.45;;;14.30;99.90;;;17.17;56.94;97120.88;5028136;28;20064;-60
2022/09/16 10:51:02;;;;;;;4.05;3.55;;;14.30;99.90;;;17.34;56.88;97115.81;5026347;28;20243;-62
2022/09/16 10:53:38;;;;;;;5.57;4.07;;;14.40;99.90;;;17.37;57.05;97123.44;5027852;28;20372;-61
2022/09/16 10:56:21;;;;;;;5.57;3.67;;;14.40;99.90;;;17.11;57.02;97115.31;5026540;28;20042;-59